sensor_id;sensor_type;location;lat;lon;timestamp;P1;durP1;ratioP1;P2;durP2;ratioP2
22107;SDS011;11220;48.812;9.128;2023-09-18T00:00:24;0.13;;;0.13;;
22107;SDS011;11220;48.812;9.128;2023-09-18T00:02:50;0.25;;;0.25;;
22107;SDS011;11220;48.812;9.128;2023-09-18T00:05:15;0.20;;;0.20;;
22107;SDS011;11220;48.812;9.128;2023-09-18T00:07:41;0.20;;;0.20;;
22107;SDS011;11220;48.812;9.128;2023-09-18T00:10:09;0.30;;;0.20;;
22107;SDS011;11220;48.812;9.128;2023-09-18T00:12:35;0.30;;;0.30;;
22107;SDS011;11220;48.812;9.128;2023-09-18T00:15:00;0.32;;;0.30;;
22107;SDS011;11220;48.812;9.128;2023-09-18T00:17:26;0.20;;;0.10;;
22107;SDS011;11220;48.812;9.128;2023-09-18T00:19:51;0.17;;;0.13;;
22107;SDS011;11220;48.812;9.128;2023-09-18T00:22:17;0.25;;;0.20;;
22107;SDS011;11220;48.812;9.128;2023-09-18T00:24:42;0.20;;;0.20;;
22107;SDS011;11220;48.812;9.128;2023-09-18T00:27:08;0.13;;;0.13;;
22107;SDS011;11220;48.812;9.128;2023-09-18T00:29:35;0.30;;;0.20;;
22107;SDS011;11220;48.812;9.128;2023-09-18T00:32:01;0.20;;;0.20;;
22107;SDS011;11220;48.812;9.128;2023-09-18T00:34:26;0.30;;;0.30;;
22107;SDS011;11220;48.812;9.128;2023-09-18T00:36:52;0.10;;;0.10;;
22107;SDS011;11220;48.812;9.128;2023-09-18T00:39:17;0.20;;;0.20;;
22107;SDS011;11220;48.812;9.128;2023-09-18T00:41:43;0.22;;;0.20;;
22107;SDS011;11220;48.812;9.128;2023-09-18T00:44:14;0.10;;;0.10;;
22107;SDS011;11220;48.812;9.128;2023-09-18T00:46:39;0.20;;;0.20;;
22107;SDS011;11220;48.812;9.128;2023-09-18T00:49:05;0.20;;;0.20;;
22107;SDS011;11220;48.812;9.128;2023-09-18T00:51:31;0.32;;;0.20;;
22107;SDS011;11220;48.812;9.128;2023-09-18T00:53:57;0.13;;;0.10;;
22107;SDS011;11220;48.812;9.128;2023-09-18T00:56:23;0.30;;;0.30;;
22107;SDS011;11220;48.812;9.128;2023-09-18T00:58:48;0.20;;;0.20;;
22107;SDS011;11220;48.812;9.128;2023-09-18T01:01:16;0.30;;;0.30;;
22107;SDS011;11220;48.812;9.128;2023-09-18T01:03:47;0.30;;;0.30;;
22107;SDS011;11220;48.812;9.128;2023-09-18T01:06:14;0.20;;;0.20;;
22107;SDS011;11220;48.812;9.128;2023-09-18T01:08:40;0.10;;;0.10;;
22107;SDS011;11220;48.812;9.128;2023-09-18T01:14:14;0.40;;;0.30;;
22107;SDS011;11220;48.812;9.128;2023-09-18T01:16:53;0.50;;;0.30;;
22107;SDS011;11220;48.812;9.128;2023-09-18T01:19:40;0.20;;;0.20;;
22107;SDS011;11220;48.812;9.128;2023-09-18T01:22:11;0.20;;;0.20;;
22107;SDS011;11220;48.812;9.128;2023-09-18T01:24:41;0.20;;;0.20;;
22107;SDS011;11220;48.812;9.128;2023-09-18T01:27:09;0.30;;;0.30;;
22107;SDS011;11220;48.812;9.128;2023-09-18T01:29:39;0.20;;;0.20;;
22107;SDS011;11220;48.812;9.128;2023-09-18T01:32:04;0.40;;;0.30;;
22107;SDS011;11220;48.812;9.128;2023-09-18T01:34:41;0.35;;;0.20;;
22107;SDS011;11220;48.812;9.128;2023-09-18T01:37:11;0.30;;;0.22;;
22107;SDS011;11220;48.812;9.128;2023-09-18T01:39:37;0.30;;;0.30;;
22107;SDS011;11220;48.812;9.128;2023-09-18T01:42:04;0.60;;;0.20;;
22107;SDS011;11220;48.812;9.128;2023-09-18T01:44:31;0.30;;;0.30;;
22107;SDS011;11220;48.812;9.128;2023-09-18T01:46:58;0.40;;;0.35;;
22107;SDS011;11220;48.812;9.128;2023-09-18T01:49:31;0.30;;;0.30;;
22107;SDS011;11220;48.812;9.128;2023-09-18T01:51:58;0.40;;;0.30;;
22107;SDS011;11220;48.812;9.128;2023-09-18T01:54:24;0.30;;;0.25;;
22107;SDS011;11220;48.812;9.128;2023-09-18T01:56:50;0.28;;;0.28;;
22107;SDS011;11220;48.812;9.128;2023-09-18T01:59:17;0.40;;;0.38;;
22107;SDS011;11220;48.812;9.128;2023-09-18T02:01:43;0.20;;;0.20;;
22107;SDS011;11220;48.812;9.128;2023-09-18T02:04:08;0.30;;;0.30;;
22107;SDS011;11220;48.812;9.128;2023-09-18T02:06:34;0.43;;;0.40;;
22107;SDS011;11220;48.812;9.128;2023-09-18T02:09:00;0.22;;;0.20;;
22107;SDS011;11220;48.812;9.128;2023-09-18T02:11:26;0.15;;;0.13;;
22107;SDS011;11220;48.812;9.128;2023-09-18T02:13:52;0.38;;;0.30;;
22107;SDS011;11220;48.812;9.128;2023-09-18T02:16:18;0.20;;;0.20;;
22107;SDS011;11220;48.812;9.128;2023-09-18T02:18:46;0.22;;;0.20;;
22107;SDS011;11220;48.812;9.128;2023-09-18T02:21:11;0.30;;;0.30;;
22107;SDS011;11220;48.812;9.128;2023-09-18T02:23:44;0.25;;;0.25;;
22107;SDS011;11220;48.812;9.128;2023-09-18T02:26:10;0.30;;;0.30;;
22107;SDS011;11220;48.812;9.128;2023-09-18T02:28:36;0.30;;;0.20;;
22107;SDS011;11220;48.812;9.128;2023-09-18T02:31:01;0.30;;;0.30;;
22107;SDS011;11220;48.812;9.128;2023-09-18T02:33:27;0.30;;;0.30;;
22107;SDS011;11220;48.812;9.128;2023-09-18T02:35:53;0.20;;;0.20;;
22107;SDS011;11220;48.812;9.128;2023-09-18T02:38:18;0.30;;;0.20;;
22107;SDS011;11220;48.812;9.128;2023-09-18T02:40:44;0.30;;;0.30;;
22107;SDS011;11220;48.812;9.128;2023-09-18T02:43:09;0.30;;;0.30;;
22107;SDS011;11220;48.812;9.128;2023-09-18T02:45:35;0.30;;;0.20;;
22107;SDS011;11220;48.812;9.128;2023-09-18T02:48:00;0.10;;;0.10;;
22107;SDS011;11220;48.812;9.128;2023-09-18T02:50:26;0.20;;;0.20;;
22107;SDS011;11220;48.812;9.128;2023-09-18T02:52:51;0.30;;;0.20;;
22107;SDS011;11220;48.812;9.128;2023-09-18T02:55:17;0.38;;;0.25;;
22107;SDS011;11220;48.812;9.128;2023-09-18T02:57:43;0.30;;;0.20;;
22107;SDS011;11220;48.812;9.128;2023-09-18T03:00:09;0.35;;;0.35;;
22107;SDS011;11220;48.812;9.128;2023-09-18T03:02:35;0.25;;;0.25;;
22107;SDS011;11220;48.812;9.128;2023-09-18T03:05:00;1.23;;;0.25;;
22107;SDS011;11220;48.812;9.128;2023-09-18T03:07:26;0.65;;;0.20;;
22107;SDS011;11220;48.812;9.128;2023-09-18T03:09:54;0.20;;;0.20;;
22107;SDS011;11220;48.812;9.128;2023-09-18T03:12:20;0.40;;;0.20;;
22107;SDS011;11220;48.812;9.128;2023-09-18T03:14:47;0.30;;;0.30;;
22107;SDS011;11220;48.812;9.128;2023-09-18T03:17:13;0.40;;;0.30;;
22107;SDS011;11220;48.812;9.128;2023-09-18T03:19:38;0.30;;;0.25;;
22107;SDS011;11220;48.812;9.128;2023-09-18T03:22:04;0.20;;;0.20;;
22107;SDS011;11220;48.812;9.128;2023-09-18T03:24:29;0.22;;;0.22;;
22107;SDS011;11220;48.812;9.128;2023-09-18T03:26:55;0.20;;;0.20;;
22107;SDS011;11220;48.812;9.128;2023-09-18T03:29:20;0.40;;;0.20;;
22107;SDS011;11220;48.812;9.128;2023-09-18T03:31:46;0.20;;;0.20;;
22107;SDS011;11220;48.812;9.128;2023-09-18T03:34:11;0.20;;;0.20;;
22107;SDS011;11220;48.812;9.128;2023-09-18T03:36:38;0.20;;;0.20;;
22107;SDS011;11220;48.812;9.128;2023-09-18T03:39:04;0.22;;;0.22;;
22107;SDS011;11220;48.812;9.128;2023-09-18T03:41:30;0.32;;;0.30;;
22107;SDS011;11220;48.812;9.128;2023-09-18T03:44:02;0.50;;;0.30;;
22107;SDS011;11220;48.812;9.128;2023-09-18T03:46:28;0.20;;;0.20;;
22107;SDS011;11220;48.812;9.128;2023-09-18T03:48:53;0.20;;;0.20;;
22107;SDS011;11220;48.812;9.128;2023-09-18T03:51:20;0.45;;;0.45;;
22107;SDS011;11220;48.812;9.128;2023-09-18T03:53:45;0.20;;;0.17;;
22107;SDS011;11220;48.812;9.128;2023-09-18T03:56:12;0.20;;;0.20;;
22107;SDS011;11220;48.812;9.128;2023-09-18T03:58:38;0.20;;;0.20;;
22107;SDS011;11220;48.812;9.128;2023-09-18T04:01:10;0.20;;;0.20;;
22107;SDS011;11220;48.812;9.128;2023-09-18T04:03:35;0.20;;;0.17;;
22107;SDS011;11220;48.812;9.128;2023-09-18T04:06:01;0.30;;;0.30;;
22107;SDS011;11220;48.812;9.128;2023-09-18T04:08:28;0.20;;;0.13;;
22107;SDS011;11220;48.812;9.128;2023-09-18T04:10:54;0.25;;;0.20;;
22107;SDS011;11220;48.812;9.128;2023-09-18T04:13:20;0.20;;;0.20;;
22107;SDS011;11220;48.812;9.128;2023-09-18T04:15:46;0.45;;;0.28;;
22107;SDS011;11220;48.812;9.128;2023-09-18T04:18:11;0.20;;;0.10;;
22107;SDS011;11220;48.812;9.128;2023-09-18T04:20:37;0.20;;;0.20;;
22107;SDS011;11220;48.812;9.128;2023-09-18T04:23:19;0.43;;;0.25;;
22107;SDS011;11220;48.812;9.128;2023-09-18T04:25:50;0.77;;;0.20;;
22107;SDS011;11220;48.812;9.128;2023-09-18T04:28:16;0.40;;;0.10;;
22107;SDS011;11220;48.812;9.128;2023-09-18T04:30:44;0.20;;;0.20;;
22107;SDS011;11220;48.812;9.128;2023-09-18T04:33:10;0.32;;;0.28;;
22107;SDS011;11220;48.812;9.128;2023-09-18T04:35:37;0.70;;;0.20;;
22107;SDS011;11220;48.812;9.128;2023-09-18T04:38:04;0.35;;;0.20;;
22107;SDS011;11220;48.812;9.128;2023-09-18T04:40:31;0.55;;;0.20;;
22107;SDS011;11220;48.812;9.128;2023-09-18T04:43:00;0.10;;;0.10;;
22107;SDS011;11220;48.812;9.128;2023-09-18T04:45:26;0.32;;;0.32;;
22107;SDS011;11220;48.812;9.128;2023-09-18T04:47:54;0.10;;;0.10;;
22107;SDS011;11220;48.812;9.128;2023-09-18T04:50:20;0.40;;;0.30;;
22107;SDS011;11220;48.812;9.128;2023-09-18T04:52:46;0.30;;;0.20;;
22107;SDS011;11220;48.812;9.128;2023-09-18T04:55:12;0.20;;;0.20;;
22107;SDS011;11220;48.812;9.128;2023-09-18T04:57:38;0.20;;;0.20;;
22107;SDS011;11220;48.812;9.128;2023-09-18T05:00:04;0.20;;;0.20;;
22107;SDS011;11220;48.812;9.128;2023-09-18T05:02:33;0.10;;;0.10;;
22107;SDS011;11220;48.812;9.128;2023-09-18T05:04:59;0.47;;;0.25;;
22107;SDS011;11220;48.812;9.128;2023-09-18T05:07:25;0.20;;;0.20;;
22107;SDS011;11220;48.812;9.128;2023-09-18T05:09:51;0.20;;;0.20;;
22107;SDS011;11220;48.812;9.128;2023-09-18T05:12:16;0.20;;;0.10;;
22107;SDS011;11220;48.812;9.128;2023-09-18T05:14:42;0.47;;;0.17;;
22107;SDS011;11220;48.812;9.128;2023-09-18T05:17:14;0.30;;;0.30;;
22107;SDS011;11220;48.812;9.128;2023-09-18T05:19:40;0.17;;;0.17;;
22107;SDS011;11220;48.812;9.128;2023-09-18T05:22:07;0.20;;;0.20;;
22107;SDS011;11220;48.812;9.128;2023-09-18T05:24:33;0.30;;;0.20;;
22107;SDS011;11220;48.812;9.128;2023-09-18T05:27:00;0.17;;;0.10;;
22107;SDS011;11220;48.812;9.128;2023-09-18T05:29:25;0.63;;;0.20;;
22107;SDS011;11220;48.812;9.128;2023-09-18T05:31:51;0.20;;;0.20;;
22107;SDS011;11220;48.812;9.128;2023-09-18T05:34:17;0.22;;;0.20;;
22107;SDS011;11220;48.812;9.128;2023-09-18T05:36:42;0.10;;;0.10;;
22107;SDS011;11220;48.812;9.128;2023-09-18T05:39:08;0.28;;;0.20;;
22107;SDS011;11220;48.812;9.128;2023-09-18T05:41:38;0.28;;;0.20;;
22107;SDS011;11220;48.812;9.128;2023-09-18T05:44:04;0.20;;;0.20;;
22107;SDS011;11220;48.812;9.128;2023-09-18T05:46:31;0.20;;;0.20;;
22107;SDS011;11220;48.812;9.128;2023-09-18T05:48:58;0.45;;;0.40;;
22107;SDS011;11220;48.812;9.128;2023-09-18T05:51:25;0.30;;;0.30;;
22107;SDS011;11220;48.812;9.128;2023-09-18T05:53:51;0.30;;;0.30;;
22107;SDS011;11220;48.812;9.128;2023-09-18T05:56:16;0.20;;;0.20;;
22107;SDS011;11220;48.812;9.128;2023-09-18T05:58:42;0.60;;;0.20;;
22107;SDS011;11220;48.812;9.128;2023-09-18T06:01:08;0.17;;;0.17;;
22107;SDS011;11220;48.812;9.128;2023-09-18T06:03:34;0.30;;;0.20;;
22107;SDS011;11220;48.812;9.128;2023-09-18T06:06:03;0.10;;;0.10;;
22107;SDS011;11220;48.812;9.128;2023-09-18T06:08:29;0.25;;;0.10;;
22107;SDS011;11220;48.812;9.128;2023-09-18T06:10:55;0.10;;;0.10;;
22107;SDS011;11220;48.812;9.128;2023-09-18T06:13:21;0.17;;;0.10;;
22107;SDS011;11220;48.812;9.128;2023-09-18T06:15:49;0.32;;;0.20;;
22107;SDS011;11220;48.812;9.128;2023-09-18T06:18:15;0.20;;;0.20;;
22107;SDS011;11220;48.812;9.128;2023-09-18T06:20:41;0.20;;;0.20;;
22107;SDS011;11220;48.812;9.128;2023-09-18T06:23:08;0.10;;;0.10;;
22107;SDS011;11220;48.812;9.128;2023-09-18T06:25:34;0.08;;;0.08;;
22107;SDS011;11220;48.812;9.128;2023-09-18T06:27:59;0.10;;;0.10;;
22107;SDS011;11220;48.812;9.128;2023-09-18T06:30:27;0.08;;;0.08;;
22107;SDS011;11220;48.812;9.128;2023-09-18T06:32:54;0.10;;;0.10;;
22107;SDS011;11220;48.812;9.128;2023-09-18T06:35:20;0.20;;;0.20;;
22107;SDS011;11220;48.812;9.128;2023-09-18T06:37:45;0.15;;;0.10;;
22107;SDS011;11220;48.812;9.128;2023-09-18T06:40:11;0.30;;;0.25;;
22107;SDS011;11220;48.812;9.128;2023-09-18T06:42:37;0.20;;;0.10;;
22107;SDS011;11220;48.812;9.128;2023-09-18T06:45:04;0.10;;;0.10;;
22107;SDS011;11220;48.812;9.128;2023-09-18T06:47:32;0.13;;;0.10;;
22107;SDS011;11220;48.812;9.128;2023-09-18T06:50:00;0.20;;;0.20;;
22107;SDS011;11220;48.812;9.128;2023-09-18T06:52:26;0.30;;;0.20;;
22107;SDS011;11220;48.812;9.128;2023-09-18T06:54:54;0.28;;;0.17;;
22107;SDS011;11220;48.812;9.128;2023-09-18T06:57:19;0.10;;;0.10;;
22107;SDS011;11220;48.812;9.128;2023-09-18T06:59:47;0.20;;;0.20;;
22107;SDS011;11220;48.812;9.128;2023-09-18T07:02:13;0.17;;;0.10;;
22107;SDS011;11220;48.812;9.128;2023-09-18T07:04:42;0.28;;;0.20;;
22107;SDS011;11220;48.812;9.128;2023-09-18T07:07:14;0.20;;;0.20;;
22107;SDS011;11220;48.812;9.128;2023-09-18T07:09:41;0.20;;;0.20;;
22107;SDS011;11220;48.812;9.128;2023-09-18T07:12:07;0.10;;;0.10;;
22107;SDS011;11220;48.812;9.128;2023-09-18T07:14:36;0.10;;;0.10;;
22107;SDS011;11220;48.812;9.128;2023-09-18T07:17:03;0.17;;;0.10;;
22107;SDS011;11220;48.812;9.128;2023-09-18T07:19:29;0.10;;;0.10;;
22107;SDS011;11220;48.812;9.128;2023-09-18T07:21:54;0.30;;;0.10;;
22107;SDS011;11220;48.812;9.128;2023-09-18T07:24:20;0.13;;;0.13;;
22107;SDS011;11220;48.812;9.128;2023-09-18T07:26:46;0.15;;;0.15;;
22107;SDS011;11220;48.812;9.128;2023-09-18T07:29:14;0.10;;;0.10;;
22107;SDS011;11220;48.812;9.128;2023-09-18T07:31:40;0.10;;;0.10;;
22107;SDS011;11220;48.812;9.128;2023-09-18T07:34:10;0.40;;;0.13;;
22107;SDS011;11220;48.812;9.128;2023-09-18T07:36:36;0.30;;;0.30;;
22107;SDS011;11220;48.812;9.128;2023-09-18T07:39:02;0.35;;;0.20;;
22107;SDS011;11220;48.812;9.128;2023-09-18T07:41:29;0.20;;;0.17;;
22107;SDS011;11220;48.812;9.128;2023-09-18T07:43:55;0.10;;;0.10;;
22107;SDS011;11220;48.812;9.128;2023-09-18T07:46:23;0.15;;;0.10;;
22107;SDS011;11220;48.812;9.128;2023-09-18T07:48:48;0.10;;;0.10;;
22107;SDS011;11220;48.812;9.128;2023-09-18T07:51:14;0.10;;;0.10;;
22107;SDS011;11220;48.812;9.128;2023-09-18T07:53:41;0.10;;;0.10;;
22107;SDS011;11220;48.812;9.128;2023-09-18T07:56:07;0.32;;;0.20;;
22107;SDS011;11220;48.812;9.128;2023-09-18T07:58:33;0.10;;;0.10;;
22107;SDS011;11220;48.812;9.128;2023-09-18T08:01:03;0.10;;;0.10;;
22107;SDS011;11220;48.812;9.128;2023-09-18T08:03:31;0.50;;;0.10;;
22107;SDS011;11220;48.812;9.128;2023-09-18T08:05:57;0.10;;;0.10;;
22107;SDS011;11220;48.812;9.128;2023-09-18T08:08:22;0.15;;;0.15;;
22107;SDS011;11220;48.812;9.128;2023-09-18T08:10:49;0.20;;;0.10;;
22107;SDS011;11220;48.812;9.128;2023-09-18T08:13:16;0.10;;;0.00;;
22107;SDS011;11220;48.812;9.128;2023-09-18T08:15:42;0.15;;;0.10;;
22107;SDS011;11220;48.812;9.128;2023-09-18T08:18:10;0.05;;;0.00;;
22107;SDS011;11220;48.812;9.128;2023-09-18T08:20:36;0.35;;;0.10;;
22107;SDS011;11220;48.812;9.128;2023-09-18T08:23:05;0.10;;;0.10;;
22107;SDS011;11220;48.812;9.128;2023-09-18T08:25:31;0.10;;;0.10;;
22107;SDS011;11220;48.812;9.128;2023-09-18T08:27:57;0.00;;;0.00;;
22107;SDS011;11220;48.812;9.128;2023-09-18T08:30:23;0.10;;;0.10;;
22107;SDS011;11220;48.812;9.128;2023-09-18T08:32:49;0.05;;;0.05;;
22107;SDS011;11220;48.812;9.128;2023-09-18T08:35:15;0.10;;;0.10;;
22107;SDS011;11220;48.812;9.128;2023-09-18T08:37:41;0.00;;;0.00;;
22107;SDS011;11220;48.812;9.128;2023-09-18T08:40:07;0.10;;;0.10;;
22107;SDS011;11220;48.812;9.128;2023-09-18T08:42:39;0.10;;;0.10;;
22107;SDS011;11220;48.812;9.128;2023-09-18T08:45:10;0.03;;;0.03;;
22107;SDS011;11220;48.812;9.128;2023-09-18T08:47:48;0.00;;;0.00;;
22107;SDS011;11220;48.812;9.128;2023-09-18T08:50:14;0.00;;;0.00;;
22107;SDS011;11220;48.812;9.128;2023-09-18T08:52:40;0.10;;;0.10;;
22107;SDS011;11220;48.812;9.128;2023-09-18T08:55:07;0.20;;;0.10;;
22107;SDS011;11220;48.812;9.128;2023-09-18T08:57:33;0.10;;;0.10;;
22107;SDS011;11220;48.812;9.128;2023-09-18T09:00:01;0.13;;;0.10;;
22107;SDS011;11220;48.812;9.128;2023-09-18T09:02:32;0.10;;;0.00;;
22107;SDS011;11220;48.812;9.128;2023-09-18T09:04:58;0.05;;;0.05;;
22107;SDS011;11220;48.812;9.128;2023-09-18T09:07:23;0.10;;;0.03;;
22107;SDS011;11220;48.812;9.128;2023-09-18T09:09:50;0.08;;;0.08;;
22107;SDS011;11220;48.812;9.128;2023-09-18T09:12:15;0.00;;;0.00;;
22107;SDS011;11220;48.812;9.128;2023-09-18T09:14:57;0.10;;;0.10;;
22107;SDS011;11220;48.812;9.128;2023-09-18T09:17:28;0.00;;;0.00;;
22107;SDS011;11220;48.812;9.128;2023-09-18T09:19:54;0.00;;;0.00;;
22107;SDS011;11220;48.812;9.128;2023-09-18T09:22:35;0.10;;;0.10;;
22107;SDS011;11220;48.812;9.128;2023-09-18T09:25:02;0.10;;;0.10;;
22107;SDS011;11220;48.812;9.128;2023-09-18T09:27:27;0.22;;;0.10;;
22107;SDS011;11220;48.812;9.128;2023-09-18T09:29:59;0.10;;;0.10;;
22107;SDS011;11220;48.812;9.128;2023-09-18T09:32:27;0.00;;;0.00;;
22107;SDS011;11220;48.812;9.128;2023-09-18T09:34:58;0.08;;;0.08;;
22107;SDS011;11220;48.812;9.128;2023-09-18T09:37:32;0.10;;;0.10;;
22107;SDS011;11220;48.812;9.128;2023-09-18T09:40:02;0.00;;;0.00;;
22107;SDS011;11220;48.812;9.128;2023-09-18T09:42:38;0.00;;;0.00;;
22107;SDS011;11220;48.812;9.128;2023-09-18T09:45:07;0.00;;;0.00;;
22107;SDS011;11220;48.812;9.128;2023-09-18T09:47:37;0.00;;;0.00;;
22107;SDS011;11220;48.812;9.128;2023-09-18T09:52:44;0.00;;;0.00;;
22107;SDS011;11220;48.812;9.128;2023-09-18T09:57:48;0.17;;;0.10;;
22107;SDS011;11220;48.812;9.128;2023-09-18T10:00:14;0.00;;;0.00;;
22107;SDS011;11220;48.812;9.128;2023-09-18T10:02:59;0.05;;;0.05;;
22107;SDS011;11220;48.812;9.128;2023-09-18T10:05:27;0.25;;;0.10;;
22107;SDS011;11220;48.812;9.128;2023-09-18T10:07:56;0.10;;;0.10;;
22107;SDS011;11220;48.812;9.128;2023-09-18T10:10:28;0.00;;;0.00;;
22107;SDS011;11220;48.812;9.128;2023-09-18T10:12:58;0.00;;;0.00;;
22107;SDS011;11220;48.812;9.128;2023-09-18T10:15:27;0.10;;;0.10;;
22107;SDS011;11220;48.812;9.128;2023-09-18T10:17:56;0.10;;;0.00;;
22107;SDS011;11220;48.812;9.128;2023-09-18T10:20:24;0.10;;;0.00;;
22107;SDS011;11220;48.812;9.128;2023-09-18T10:22:52;0.10;;;0.00;;
22107;SDS011;11220;48.812;9.128;2023-09-18T10:25:21;0.20;;;0.10;;
22107;SDS011;11220;48.812;9.128;2023-09-18T10:27:49;0.00;;;0.00;;
22107;SDS011;11220;48.812;9.128;2023-09-18T10:30:18;0.00;;;0.00;;
22107;SDS011;11220;48.812;9.128;2023-09-18T10:32:45;0.00;;;0.00;;
22107;SDS011;11220;48.812;9.128;2023-09-18T10:35:11;0.00;;;0.00;;
22107;SDS011;11220;48.812;9.128;2023-09-18T10:37:37;0.00;;;0.00;;
22107;SDS011;11220;48.812;9.128;2023-09-18T10:40:04;0.10;;;0.03;;
22107;SDS011;11220;48.812;9.128;2023-09-18T10:42:34;0.00;;;0.00;;
22107;SDS011;11220;48.812;9.128;2023-09-18T10:45:00;0.00;;;0.00;;
22107;SDS011;11220;48.812;9.128;2023-09-18T10:47:29;0.05;;;0.00;;
22107;SDS011;11220;48.812;9.128;2023-09-18T10:49:56;0.00;;;0.00;;
22107;SDS011;11220;48.812;9.128;2023-09-18T10:52:22;0.10;;;0.10;;
22107;SDS011;11220;48.812;9.128;2023-09-18T10:54:47;0.00;;;0.00;;
22107;SDS011;11220;48.812;9.128;2023-09-18T10:57:13;0.00;;;0.00;;
22107;SDS011;11220;48.812;9.128;2023-09-18T10:59:45;0.00;;;0.00;;
22107;SDS011;11220;48.812;9.128;2023-09-18T11:02:15;0.10;;;0.10;;
22107;SDS011;11220;48.812;9.128;2023-09-18T11:04:42;0.00;;;0.00;;
22107;SDS011;11220;48.812;9.128;2023-09-18T11:07:09;0.00;;;0.00;;
22107;SDS011;11220;48.812;9.128;2023-09-18T11:09:45;0.13;;;0.10;;
22107;SDS011;11220;48.812;9.128;2023-09-18T11:12:11;0.30;;;0.00;;
22107;SDS011;11220;48.812;9.128;2023-09-18T11:17:32;0.00;;;0.00;;
22107;SDS011;11220;48.812;9.128;2023-09-18T11:25:38;0.00;;;0.00;;
22107;SDS011;11220;48.812;9.128;2023-09-18T11:28:15;0.00;;;0.00;;
22107;SDS011;11220;48.812;9.128;2023-09-18T11:30:50;0.00;;;0.00;;
22107;SDS011;11220;48.812;9.128;2023-09-18T11:36:02;0.10;;;0.00;;
22107;SDS011;11220;48.812;9.128;2023-09-18T11:38:32;0.00;;;0.00;;
22107;SDS011;11220;48.812;9.128;2023-09-18T11:41:19;0.10;;;0.03;;
22107;SDS011;11220;48.812;9.128;2023-09-18T11:43:50;0.15;;;0.10;;
22107;SDS011;11220;48.812;9.128;2023-09-18T11:46:19;0.00;;;0.00;;
22107;SDS011;11220;48.812;9.128;2023-09-18T11:51:15;0.00;;;0.00;;
22107;SDS011;11220;48.812;9.128;2023-09-18T11:53:47;0.00;;;0.00;;
22107;SDS011;11220;48.812;9.128;2023-09-18T11:56:14;0.10;;;0.10;;
22107;SDS011;11220;48.812;9.128;2023-09-18T11:58:46;0.63;;;0.10;;
22107;SDS011;11220;48.812;9.128;2023-09-18T12:01:13;0.17;;;0.10;;
22107;SDS011;11220;48.812;9.128;2023-09-18T12:03:40;0.10;;;0.10;;
22107;SDS011;11220;48.812;9.128;2023-09-18T12:06:08;0.40;;;0.10;;
22107;SDS011;11220;48.812;9.128;2023-09-18T12:08:41;0.10;;;0.00;;
22107;SDS011;11220;48.812;9.128;2023-09-18T12:11:07;0.10;;;0.08;;
22107;SDS011;11220;48.812;9.128;2023-09-18T12:13:32;0.10;;;0.00;;
22107;SDS011;11220;48.812;9.128;2023-09-18T12:15:59;0.10;;;0.10;;
22107;SDS011;11220;48.812;9.128;2023-09-18T12:18:26;0.32;;;0.00;;
22107;SDS011;11220;48.812;9.128;2023-09-18T12:21:01;0.10;;;0.10;;
22107;SDS011;11220;48.812;9.128;2023-09-18T12:23:29;0.13;;;0.10;;
22107;SDS011;11220;48.812;9.128;2023-09-18T12:26:01;0.20;;;0.10;;
22107;SDS011;11220;48.812;9.128;2023-09-18T12:28:28;0.10;;;0.00;;
22107;SDS011;11220;48.812;9.128;2023-09-18T12:30:54;0.28;;;0.10;;
22107;SDS011;11220;48.812;9.128;2023-09-18T12:33:22;0.10;;;0.00;;
22107;SDS011;11220;48.812;9.128;2023-09-18T12:35:47;0.10;;;0.10;;
22107;SDS011;11220;48.812;9.128;2023-09-18T12:38:18;0.20;;;0.00;;
22107;SDS011;11220;48.812;9.128;2023-09-18T12:40:55;0.00;;;0.00;;
22107;SDS011;11220;48.812;9.128;2023-09-18T12:43:21;0.10;;;0.10;;
22107;SDS011;11220;48.812;9.128;2023-09-18T12:45:50;0.40;;;0.00;;
22107;SDS011;11220;48.812;9.128;2023-09-18T12:48:17;0.10;;;0.10;;
22107;SDS011;11220;48.812;9.128;2023-09-18T12:50:42;0.00;;;0.00;;
22107;SDS011;11220;48.812;9.128;2023-09-18T12:53:09;0.10;;;0.03;;
22107;SDS011;11220;48.812;9.128;2023-09-18T12:55:35;0.10;;;0.03;;
22107;SDS011;11220;48.812;9.128;2023-09-18T12:58:02;0.00;;;0.00;;
22107;SDS011;11220;48.812;9.128;2023-09-18T13:00:32;0.17;;;0.10;;
22107;SDS011;11220;48.812;9.128;2023-09-18T13:02:59;0.05;;;0.05;;
22107;SDS011;11220;48.812;9.128;2023-09-18T13:05:24;0.13;;;0.00;;
22107;SDS011;11220;48.812;9.128;2023-09-18T13:13:19;0.00;;;0.00;;
22107;SDS011;11220;48.812;9.128;2023-09-18T13:15:46;0.00;;;0.00;;
22107;SDS011;11220;48.812;9.128;2023-09-18T13:18:13;0.00;;;0.00;;
22107;SDS011;11220;48.812;9.128;2023-09-18T13:20:39;0.00;;;0.00;;
22107;SDS011;11220;48.812;9.128;2023-09-18T13:23:05;0.10;;;0.00;;
22107;SDS011;11220;48.812;9.128;2023-09-18T13:25:33;0.03;;;0.00;;
22107;SDS011;11220;48.812;9.128;2023-09-18T13:28:01;0.00;;;0.00;;
22107;SDS011;11220;48.812;9.128;2023-09-18T13:30:28;0.15;;;0.00;;
22107;SDS011;11220;48.812;9.128;2023-09-18T13:33:09;0.10;;;0.10;;
22107;SDS011;11220;48.812;9.128;2023-09-18T13:35:41;0.03;;;0.00;;
22107;SDS011;11220;48.812;9.128;2023-09-18T13:38:08;0.10;;;0.10;;
22107;SDS011;11220;48.812;9.128;2023-09-18T13:40:36;0.03;;;0.00;;
22107;SDS011;11220;48.812;9.128;2023-09-18T13:43:02;0.17;;;0.00;;
22107;SDS011;11220;48.812;9.128;2023-09-18T13:45:29;0.10;;;0.10;;
22107;SDS011;11220;48.812;9.128;2023-09-18T13:47:55;0.10;;;0.10;;
22107;SDS011;11220;48.812;9.128;2023-09-18T13:50:21;0.00;;;0.00;;
22107;SDS011;11220;48.812;9.128;2023-09-18T13:52:46;0.08;;;0.00;;
22107;SDS011;11220;48.812;9.128;2023-09-18T13:55:12;0.10;;;0.10;;
22107;SDS011;11220;48.812;9.128;2023-09-18T13:57:37;0.20;;;0.10;;
22107;SDS011;11220;48.812;9.128;2023-09-18T14:00:05;0.00;;;0.00;;
22107;SDS011;11220;48.812;9.128;2023-09-18T14:02:32;0.10;;;0.10;;
22107;SDS011;11220;48.812;9.128;2023-09-18T14:04:58;0.10;;;0.00;;
22107;SDS011;11220;48.812;9.128;2023-09-18T14:07:23;0.03;;;0.03;;
22107;SDS011;11220;48.812;9.128;2023-09-18T14:09:49;0.17;;;0.10;;
22107;SDS011;11220;48.812;9.128;2023-09-18T14:12:15;0.05;;;0.05;;
22107;SDS011;11220;48.812;9.128;2023-09-18T14:14:41;0.00;;;0.00;;
22107;SDS011;11220;48.812;9.128;2023-09-18T14:17:07;0.10;;;0.00;;
22107;SDS011;11220;48.812;9.128;2023-09-18T14:19:33;0.00;;;0.00;;
22107;SDS011;11220;48.812;9.128;2023-09-18T14:21:59;0.08;;;0.08;;
22107;SDS011;11220;48.812;9.128;2023-09-18T14:24:29;0.00;;;0.00;;
22107;SDS011;11220;48.812;9.128;2023-09-18T14:26:55;0.05;;;0.05;;
22107;SDS011;11220;48.812;9.128;2023-09-18T14:29:20;0.15;;;0.00;;
22107;SDS011;11220;48.812;9.128;2023-09-18T14:31:46;0.10;;;0.10;;
22107;SDS011;11220;48.812;9.128;2023-09-18T14:34:12;0.20;;;0.10;;
22107;SDS011;11220;48.812;9.128;2023-09-18T14:36:38;0.00;;;0.00;;
22107;SDS011;11220;48.812;9.128;2023-09-18T14:39:07;0.03;;;0.00;;
22107;SDS011;11220;48.812;9.128;2023-09-18T14:41:37;0.10;;;0.10;;
22107;SDS011;11220;48.812;9.128;2023-09-18T14:44:03;0.25;;;0.10;;
22107;SDS011;11220;48.812;9.128;2023-09-18T14:46:30;0.00;;;0.00;;
22107;SDS011;11220;48.812;9.128;2023-09-18T14:48:59;0.03;;;0.03;;
22107;SDS011;11220;48.812;9.128;2023-09-18T14:51:28;0.10;;;0.00;;
22107;SDS011;11220;48.812;9.128;2023-09-18T14:53:58;0.10;;;0.00;;
22107;SDS011;11220;48.812;9.128;2023-09-18T14:56:24;0.00;;;0.00;;
22107;SDS011;11220;48.812;9.128;2023-09-18T14:58:49;0.10;;;0.10;;
22107;SDS011;11220;48.812;9.128;2023-09-18T15:01:17;0.05;;;0.00;;
22107;SDS011;11220;48.812;9.128;2023-09-18T15:03:43;0.00;;;0.00;;
22107;SDS011;11220;48.812;9.128;2023-09-18T15:06:09;0.00;;;0.00;;
22107;SDS011;11220;48.812;9.128;2023-09-18T15:08:35;0.00;;;0.00;;
22107;SDS011;11220;48.812;9.128;2023-09-18T15:11:01;0.00;;;0.00;;
22107;SDS011;11220;48.812;9.128;2023-09-18T15:13:28;0.05;;;0.00;;
22107;SDS011;11220;48.812;9.128;2023-09-18T15:15:55;0.00;;;0.00;;